Aviation Digital Data Service (ADDS)

Output produced by TAFs form (0143 UTC 28 September 2016)
found at http://aviationweather.gov/adds/tafs/
 
KAMA 272324Z 2800/2824 22008KT P6SM FEW300 
     FM281300 31010KT P6SM SKC 
     FM281900 04011KT P6SM SKC